Reese River Valley, Nevada Weather observations

Data are for 10 minute period ending at time listed.
 Day   Time   Solar   Ave.   Ave.  Ave.  Vector  Max.   Baro.   Total    
  of    of     Rad.   Air    Rel.  Wind   Wind   Wind  Press.  Precip.   
Year   Day            Temp.  Hum.  Speed  Dir.   Gust                    
2017   (PST)  Kw/m2    F      %     mph   deg.    mph    mb.     in.     
-------------------------------------------------------------------------
  82    1:30   0.00   32.2    94    0.1   129     1.8   810.0    0.00 
  82    1:40   0.00   32.1    95    2.6   119     3.4   810.0    0.00 
  82    1:50   0.00   32.0    95    1.8   103     2.9   810.0    0.00 
  82    2:00   0.00   32.1    95    2.8    70     3.7   810.0    0.00 
  82    2:10   0.00   32.1    95    1.9   312     3.7   810.0    0.00 
  82    2:20   0.00   32.2    95    2.2    54     3.9   810.1    0.00 
  82    2:30   0.00   32.2    95    2.5    59     3.9   810.1    0.00 
  82    2:40   0.00   32.3    95    3.6    60     5.7   810.1    0.00 
  82    2:50   0.00   32.3    95    5.2    38     8.0   810.2    0.00 
  82    3:00   0.00   32.4    95    6.0    42     9.3   810.3    0.00 
  82    3:10   0.00   32.4    95    5.5    38     7.7   810.3    0.00 
  82    3:20   0.00   32.4    95    5.4    43     7.5   810.5    0.00 
  82    3:30   0.00   32.4    95    5.0    47     6.4   810.5    0.00 
  82    3:40   0.00   32.3    96    5.7    53     8.3   810.6    0.00 
  82    3:50   0.00   32.3    96    6.6    57     8.6   810.7    0.00 
  82    4:00   0.00   32.3    96    6.0    53     8.3   810.8    0.00 
  82    4:10   0.00   32.3    96    5.8    51     7.6   810.9    0.00 
  82    4:20   0.00   32.4    96    4.6    61     6.8   811.0    0.00 
  82    4:30   0.00   32.3    96    4.6    63     7.1   811.1    0.00 
  82    4:40   0.00   32.3    96    3.7    65     4.8   811.2    0.00 
  82    4:50   0.00   32.2    96    2.9    79     4.3   811.3    0.00 
  82    5:00   0.00   32.1    96    3.2    80     4.2   811.3    0.00 
  82    5:10   0.00   32.1    96    3.6    64     5.0   811.4    0.00 
  82    5:20   0.00   32.1    96    2.7    65     7.5   811.4    0.00 
  82    5:30   0.00   32.2    96    3.0     5     8.5   811.4    0.00 
  82    5:40   0.00   32.2    95    2.6    14     5.9   811.6    0.00 
  82    5:50   0.00   32.3    95    4.1   354     6.1   811.6    0.00 
  82    6:00   0.00   32.3    95    3.8   358     6.5   811.8    0.00 
  82    6:10   0.01   32.3    95    3.5     3     4.7   811.9    0.00 
  82    6:20   0.01   32.4    95    3.4    12     4.5   812.0    0.00 
  82    6:30   0.02   32.4    95    3.8    13     5.0   812.1    0.00 
  82    6:40   0.03   32.5    95    3.6     4     4.7   812.1    0.00 
  82    6:50   0.03   32.6    94    2.9     6     4.2   812.2    0.00 
  82    7:00   0.03   32.8    94    3.5   357     6.5   812.4    0.00 
  82    7:10   0.04   32.9    94    3.0    11     7.5   812.5    0.00 
  82    7:20   0.07   33.8    94    1.5    66     2.2   812.6    0.00 
  82    7:30   0.06   33.3    91    2.8   102     4.2   812.7    0.00 
  82    7:40   0.09   33.1    91    4.1    99     5.5   812.7    0.00 
  82    7:50   0.09   32.9    89    4.8   110     6.4   812.8    0.00 
  82    8:00   0.08   32.9    89    5.7   100     7.7   812.9    0.00 
  82    8:10   0.12   33.3    89    6.6    77     9.6   813.0    0.00 
  82    8:20   0.18   34.2    90    4.9    63     6.5   813.2    0.00 
  82    8:30   0.21   34.8    89    4.9    49     7.6   813.3    0.01 
  82    8:40   0.28   35.3    88    4.3    58     5.9   813.4    0.00 
  82    8:50   0.28   35.2    87    4.1    45     6.5   813.5    0.00 
  82    9:00   0.41   35.1    86    3.8    13     7.6   813.6    0.03 
  82    9:10   0.33   35.6    82    5.5   339     7.8   813.8    0.03 
  82    9:20   0.30   35.7    81    5.0   346     7.5   813.9    0.03 
  82    9:30   0.31   36.0    81    4.3   343     6.5   814.0    0.03 
  82    9:40   0.44   36.5    79    3.7    17     7.0   814.2    0.02 
  82    9:50   0.34   36.9    76    4.5   345     7.0   814.4    0.01 
  82   10:00   0.51   37.3    74    5.6   336     8.3   814.5    0.01 
  82   10:10   0.39   37.8    70    3.8   335     7.2   814.6    0.00 
  82   10:20   0.43   37.9    72    5.3   317     8.2   814.6    0.01 
  82   10:30   0.79   38.3    70    5.2   327    10.2   814.6    0.00 
  82   10:40   0.94   39.6    67    4.4   319    10.3   814.6    0.00 
  82   10:50   0.27   39.7    68    4.6   351     9.9   814.5    0.00 
  82   11:00   0.78   40.0    71    5.8    38    10.4   814.3    0.00 
  82   11:10   0.34   39.4    74    6.0    91     8.6   814.2    0.00 
  82   11:20   0.48   39.3    73    6.9    77    10.1   814.2    0.00 
  82   11:30   0.42   39.7    69    4.2    24    10.2   814.3    0.00 
  82   11:40   0.42   40.0    70    5.2   101     9.1   814.4    0.00 
  82   11:50   0.41   40.3    68    2.6   104     6.4   814.5    0.00 
  82   12:00   0.69   40.9    68    4.3    85     6.9   814.4    0.00 
  82   12:10   0.49   41.3    66    4.2    82     8.0   814.4    0.00 
  82   12:20   0.32   40.9    66    4.7    88     8.2   814.4    0.00 
  82   12:30   0.25   40.8    67    5.3    85     7.7   814.4    0.00 
  82   12:40   0.64   41.9    66    3.0   336     8.8   814.4    0.00 
  82   12:50   0.87   44.0    60    3.0   227     7.2   814.4    0.00 
  82   13:00   0.87   43.9    59    2.7   317     8.4   814.4    0.00 
  82   13:10   0.74   46.0    58    2.6   185     8.3   814.4    0.00 
  82   13:20   0.56   44.7    59    3.9   118     8.3   814.3    0.00 
  82   13:30   1.07   45.1    57    3.4    33     6.7   814.3    0.00 
  82   13:40   0.70   45.1    57    6.1    93    10.4   814.3    0.00 
  82   13:50   0.80   44.7    58    6.5   108    10.7   814.2    0.00 
  82   14:00   0.41   44.4    56    5.1   133    10.5   814.2    0.00 
  82   14:10   0.37   44.7    54    2.5    99     7.0   814.3    0.00 
  82   14:20   0.26   44.2    54    4.4    55     7.1   814.3    0.00 
  82   14:30   0.44   44.4    51    4.0   108    10.5   814.2    0.00 
  82   14:40   0.43   44.7    52    6.0   120    10.7   814.2    0.00 
  82   14:50   0.35   44.9    48    3.4   159     5.2   814.1    0.00 
  82   15:00   0.52   46.9    46    2.4   156     4.9   814.1    0.00 
  82   15:10   0.63   46.9    45    3.0    47     7.1   814.1    0.00 
  82   15:20   0.67   49.2    43    2.0   180     6.9   814.2    0.00 
  82   15:30   0.30   48.5    42    1.6   176     4.6   814.2    0.00 
  82   15:40   0.26   47.0    44    2.2   110     4.2   814.3    0.00 
  82   15:50   0.33   46.4    44    2.8    90     5.1   814.2    0.00 
  82   16:00   0.43   47.5    42    2.3    92     5.0   814.2    0.00 
  82   16:10   0.26   47.3    42    2.6   152     4.9   814.1    0.00 
  82   16:20   0.39   48.4    40    3.0   173     6.1   814.1    0.00 
  82   16:30   0.32   48.7    41    4.1   180     9.8   814.0    0.00 
  82   16:40   0.24   47.7    40    4.3   192     9.3   814.2    0.00 
  82   16:50   0.28   48.6    39    3.6   201     6.0   814.2    0.00 
  82   17:00   0.24   48.2    38    2.9     7     5.3   814.2    0.00 
  82   17:10   0.18   47.4    40    2.8     4     5.3   814.4    0.00 
  82   17:20   0.14   47.5    40    4.7   258     8.3   814.4    0.00 
  82   17:30   0.11   46.1    42    5.8   267     9.1   814.5    0.00 
  82   17:40   0.07   45.0    45    6.0   261     8.8   814.7    0.00 
  82   17:50   0.03   44.0    45    4.5   237     7.6   814.8    0.00 
  82   18:00   0.01   42.8    49    3.3   212     4.7   814.9    0.00 
  82   18:10   0.01   40.6    60    3.9   200     5.4   815.0    0.00 
  82   18:20   0.00   37.9    64    5.3   210     6.5   815.1    0.00 
  82   18:30   0.00   37.2    71    5.2   190     5.8   815.2    0.00 
  82   18:40   0.00   36.4    72    3.8   175     5.4   815.2    0.00 
  82   18:50   0.00   35.3    74    5.0   171     6.2   815.2    0.00 
  82   19:00   0.00   34.1    78    5.2   169     6.4   815.4    0.00 
  82   19:10   0.00   33.0    80    5.8   187     7.7   815.6    0.00 
  82   19:20   0.00   32.7    82    5.2   189     6.6   815.7    0.00 
  82   19:30   0.00   30.9    85    5.5   216     6.3   815.9    0.00 
  82   19:40   0.00   30.3    88    5.4   223     6.6   816.0    0.00 
  82   19:50   0.00   30.6    87    5.2   222     7.1   816.1    0.00 
  82   20:00   0.00   31.7    84    5.6   210     7.3   816.3    0.00 
  82   20:10   0.00   31.6    81    6.2   223     7.5   816.4    0.00 
  82   20:20   0.00   31.1    82    5.8   213     7.5   816.5    0.00 
  82   20:30   0.00   29.7    84    5.6   210     6.6   816.6    0.00 
  82   20:40   0.00   29.5    86    5.6   217     6.5   816.7    0.00 
  82   20:50   0.00   30.0    85    5.7   219     7.1   816.7    0.00 
  82   21:00   0.00   29.9    86    6.5   218     8.1   816.7    0.00 
  82   21:10   0.00   30.7    83    5.9   203     8.3   816.8    0.00 
  82   21:20   0.00   30.7    83    4.7   187     7.7   816.8    0.00 
  82   21:30   0.00   30.2    84    5.0   191     6.3   816.9    0.00 
  82   21:40   0.00   29.2    86    6.4   217    10.1   816.9    0.00 
  82   21:50   0.00   29.6    87    5.6   213     8.1   816.9    0.00 
  82   22:00   0.00   29.2    88    6.7   230     8.8   816.9    0.00 
  82   22:10   0.00   29.3    89    7.0   224     8.9   817.1    0.00 
  82   22:20   0.00   29.2    89    5.7   212     7.2   817.0    0.00 
  82   22:30   0.00   28.2    89    5.5   231     8.6   816.8    0.00 
  82   22:40   0.00   28.5    90    7.4   232    10.2   816.7    0.00 
  82   22:50   0.00   29.0    89    8.1   224    10.4   816.7    0.00 
  82   23:00   0.00   28.9    89    7.3   227     9.3   816.6    0.00 
  82   23:10   0.00   29.0    89    6.7   223     9.1   816.7    0.00 
  82   23:20   0.00   28.9    89    4.9   191     6.4   816.7    0.00 
  82   23:30   0.00   28.8    89    7.5   226     9.9   816.8    0.00 
  82   23:40   0.00   29.0    88    5.8   212    10.0   816.8    0.00 
  82   23:50   0.00   28.5    86    3.4   184     4.9   816.8    0.00 
  83    0:00   0.00   27.6    88    5.6   241     7.0   816.7    0.00 
  83    0:10   0.00   28.0    89    7.5   237    10.2   816.8    0.00 
  83    0:20   0.00   28.5    88    8.3   232    10.7   816.7    0.00 
  83    0:30   0.00   28.8    87    8.3   230    11.0   816.7    0.00 
  83    0:40   0.00   29.1    86    8.3   215    12.9   816.7    0.00 
  83    0:50   0.00   29.9    82    8.0   212    10.9   816.8    0.00 
  83    1:00   0.00   29.7    83    5.9   199     8.2   816.7    0.00 
  83    1:10   0.00   29.4    83    9.0   244    13.2   816.7    0.00 
  83    1:20   0.00   29.6    83    9.1   237    12.3   816.8    0.00 

Return to Reese River Valley graphs page.


Western Regional Climate Center,wrcc@dri.edu